Time;durP1;ratioP1;P1;durP2;ratioP2;P2;SDS_P1;SDS_P2;PMS_P1;PMS_P2;Temp;Humidity;BMP_temperature;BMP_pressure;BME280_temperature;BME280_humidity;BME280_pressure;Samples;Min_cycle;Max_cycle;Signal;HPM_P1;HPM_P2
2021/09/01 00:00:41;;;;;;;0.70;0.70;;;;;;;13.90;100.00;808.47;6249380;22;20387;-70
2021/09/01 00:03:08;;;;;;;0.70;0.70;;;;;;;13.91;100.00;147.03;6277526;22;20481;-70
2021/09/01 00:05:35;;;;;;;1.00;0.90;;;;;;;13.86;100.00;-468.97;6278017;22;20819;-71
2021/09/01 00:08:03;;;;;;;0.80;0.73;;;;;;;13.83;100.00;-1191.09;6277222;22;20520;-70
2021/09/01 00:10:30;;;;;;;17.33;2.30;;;;;;;13.84;100.00;-1765.94;6277592;22;20491;-71
2021/09/01 00:12:57;;;;;;;0.90;0.90;;;;;;;13.89;100.00;-2500.13;6251603;22;20466;-71
2021/09/01 00:15:26;;;;;;;0.70;0.70;;;;;;;13.89;100.00;-3401.38;6251149;22;20453;-72
2021/09/01 00:17:53;;;;;;;0.70;0.60;;;;;;;13.94;100.00;-4267.00;6277615;22;20374;-70
2021/09/01 00:20:20;;;;;;;0.70;0.70;;;;;;;13.96;100.00;-5172.94;6278439;22;20390;-70
2021/09/01 00:22:47;;;;;;;0.70;0.70;;;;;;;13.95;100.00;-6134.28;6278169;22;20410;-71
2021/09/01 00:25:15;;;;;;;0.70;0.70;;;;;;;13.91;100.00;-6923.19;6277890;22;20384;-72
2021/09/01 00:27:42;;;;;;;0.70;0.70;;;;;;;13.96;100.00;-7616.25;6277242;22;20379;-71
2021/09/01 00:30:09;;;;;;;0.70;0.70;;;;;;;14.07;100.00;-8208.50;6277460;22;20422;-71
2021/09/01 00:32:38;;;;;;;1.10;0.90;;;;;;;14.18;100.00;-8826.19;6277638;22;20388;-71
2021/09/01 00:35:06;;;;;;;0.70;0.60;;;;;;;14.21;100.00;-9311.84;6275883;22;20381;-71
2021/09/01 00:37:36;;;;;;;1.30;1.20;;;;;;;14.26;100.00;-9537.25;6250651;22;20792;-71
2021/09/01 00:40:04;;;;;;;0.70;0.60;;;;;;;14.34;100.00;-9707.34;6277651;22;20452;-71
2021/09/01 00:42:31;;;;;;;0.80;0.80;;;;;;;14.40;100.00;-9980.97;6277747;22;20395;-70
2021/09/01 00:44:58;;;;;;;4.93;1.10;;;;;;;14.44;100.00;-10148.16;6250597;22;20435;-72
2021/09/01 00:47:26;;;;;;;0.70;0.70;;;;;;;14.54;100.00;-10285.63;6251444;22;20387;-71
2021/09/01 00:49:54;;;;;;;0.70;0.60;;;;;;;14.62;100.00;-10324.38;6277519;22;20461;-71
2021/09/01 00:52:22;;;;;;;0.70;0.70;;;;;;;14.69;100.00;-10418.66;6278138;22;20465;-71
2021/09/01 00:54:49;;;;;;;0.73;0.70;;;;;;;14.79;100.00;-10080.66;6250375;22;20389;-71
2021/09/01 00:57:20;;;;;;;0.70;0.70;;;;;;;14.86;100.00;-9823.28;6249992;22;20404;-71
2021/09/01 00:59:47;;;;;;;0.77;0.77;;;;;;;14.90;100.00;-9474.44;6249938;22;20412;-72
2021/09/01 01:02:14;;;;;;;0.70;0.63;;;;;;;14.93;100.00;-9021.59;6225416;22;20904;-70
2021/09/01 01:04:41;;;;;;;0.70;0.70;;;;;;;14.96;100.00;-8715.56;6250796;22;20896;-71
2021/09/01 01:07:11;;;;;;;0.70;0.60;;;;;;;15.07;100.00;-8326.34;6250507;22;20395;-70
2021/09/01 01:09:39;;;;;;;1.23;0.83;;;;;;;15.03;100.00;-8179.22;6250190;22;20450;-71
2021/09/01 01:12:09;;;;;;;1.20;1.10;;;;;;;15.05;100.00;-7910.91;6276469;22;20444;-71
2021/09/01 01:14:38;;;;;;;0.70;0.70;;;;;;;15.09;100.00;-7399.53;6251614;22;20423;-72
2021/09/01 01:17:08;;;;;;;1.27;0.93;;;;;;;15.08;100.00;-7070.16;6276634;22;20413;-72
2021/09/01 01:19:38;;;;;;;0.70;0.70;;;;;;;15.09;100.00;-6735.78;6277887;22;20397;-71
2021/09/01 01:22:07;;;;;;;0.83;0.83;;;;;;;15.10;100.00;-6523.00;6277710;22;20371;-71
2021/09/01 01:24:53;;;;;;;0.70;0.60;;;;;;;15.09;100.00;-6340.53;6277234;22;20425;-71
2021/09/01 01:27:33;;;;;;;0.70;0.70;;;;;;;15.11;100.00;-6046.63;6250003;22;20374;-71
2021/09/01 01:30:07;;;;;;;0.93;0.83;;;;;;;15.15;100.00;-5699.53;6249639;22;20440;-72
2021/09/01 01:32:54;;;;;;;0.70;0.70;;;;;;;15.18;100.00;-5544.97;6249740;22;20422;-72
2021/09/01 01:35:26;;;;;;;0.80;0.80;;;;;;;15.19;100.00;-5245.88;6249617;22;20452;-72
2021/09/01 01:37:56;;;;;;;0.70;0.70;;;;;;;15.20;100.00;-5068.41;6250022;22;20427;-71
2021/09/01 01:40:25;;;;;;;0.70;0.70;;;;;;;15.24;100.00;-4799.69;6250703;22;20371;-71
2021/09/01 01:42:55;;;;;;;0.70;0.70;;;;;;;15.27;100.00;-4378.75;6249766;22;20392;-71
2021/09/01 01:45:24;;;;;;;0.70;0.60;;;;;;;15.29;100.00;-4054.09;6250242;22;20852;-70
2021/09/01 01:47:52;;;;;;;0.70;0.60;;;;;;;15.28;100.00;-3866.41;6249700;22;20389;-71
2021/09/01 01:50:18;;;;;;;1.33;1.23;;;;;;;15.28;100.00;-3493.50;6276757;22;20421;-71
2021/09/01 01:52:46;;;;;;;0.70;0.70;;;;;;;15.31;100.00;-3176.31;6250924;22;20417;-71
2021/09/01 01:55:12;;;;;;;1.43;1.33;;;;;;;15.36;100.00;-2562.09;6224751;22;20402;-72
2021/09/01 01:57:40;;;;;;;0.90;0.90;;;;;;;15.40;100.00;-2265.03;6276365;22;20449;-72
2021/09/01 02:00:11;;;;;;;1.20;1.10;;;;;;;15.39;100.00;-2082.28;6250060;22;20411;-71
2021/09/01 02:02:39;;;;;;;1.47;1.37;;;;;;;15.44;100.00;-1747.03;6276842;22;20873;-71
2021/09/01 02:05:07;;;;;;;0.70;0.70;;;;;;;15.46;100.00;-1373.66;6276996;22;20892;-71
2021/09/01 02:07:37;;;;;;;0.70;0.70;;;;;;;15.46;100.00;-1137.53;6249898;22;20423;-71
2021/09/01 02:10:06;;;;;;;1.70;1.60;;;;;;;15.47;100.00;-728.59;6249702;22;20961;-71
2021/09/01 02:12:34;;;;;;;0.70;0.70;;;;;;;15.49;100.00;-342.44;6248929;22;20399;-71
2021/09/01 02:15:04;;;;;;;0.70;0.70;;;;;;;15.50;100.00;127.63;6250062;22;20440;-71
2021/09/01 02:17:33;;;;;;;0.80;0.80;;;;;;;15.54;100.00;437.88;6277135;22;20383;-72
2021/09/01 02:20:00;;;;;;;0.87;0.87;;;;;;;15.48;100.00;615.31;6277117;22;20383;-71
2021/09/01 02:22:27;;;;;;;0.80;0.70;;;;;;;15.54;100.00;1106.22;6249654;22;20480;-71
2021/09/01 02:24:55;;;;;;;0.70;0.60;;;;;;;15.59;100.00;1670.97;6250376;22;20414;-71
2021/09/01 02:27:24;;;;;;;0.90;0.90;;;;;;;15.55;100.00;1825.69;6248466;22;20395;-71
2021/09/01 02:29:51;;;;;;;0.70;0.70;;;;;;;15.60;100.00;2271.06;6247996;22;20512;-71
2021/09/01 02:32:19;;;;;;;0.70;0.70;;;;;;;15.68;100.00;2561.81;6224211;22;20407;-70
2021/09/01 02:34:48;;;;;;;0.70;0.60;;;;;;;15.68;100.00;2770.38;6276655;22;20422;-71
2021/09/01 02:37:15;;;;;;;0.70;0.70;;;;;;;15.68;100.00;3518.28;6277493;22;20823;-71
2021/09/01 02:39:42;;;;;;;0.70;0.70;;;;;;;15.70;100.00;3900.09;6276545;22;20481;-70
2021/09/01 02:42:09;;;;;;;0.70;0.70;;;;;;;15.75;100.00;4526.75;6275661;22;20461;-70
2021/09/01 02:44:36;;;;;;;0.70;0.67;;;;;;;15.67;100.00;4683.47;6275736;22;20391;-71
2021/09/01 02:47:04;;;;;;;0.70;0.70;;;;;;;15.73;100.00;5318.03;6276710;22;20390;-71
2021/09/01 02:49:31;;;;;;;0.80;0.70;;;;;;;15.73;100.00;5776.19;6249374;22;20831;-71
2021/09/01 02:51:59;;;;;;;0.70;0.70;;;;;;;15.73;100.00;6443.38;6249545;22;20409;-72
2021/09/01 02:54:27;;;;;;;0.70;0.60;;;;;;;15.72;100.00;6921.94;6276311;22;20446;-71
2021/09/01 02:56:54;;;;;;;2.53;1.00;;;;;;;15.75;100.00;7617.88;6275997;22;20424;-70
2021/09/01 02:59:21;;;;;;;0.70;0.70;;;;;;;15.72;100.00;7917.88;6275328;22;20396;-72
2021/09/01 03:01:49;;;;;;;0.70;0.70;;;;;;;15.72;100.00;8317.84;6275657;22;20844;-71
2021/09/01 03:04:16;;;;;;;0.70;0.67;;;;;;;15.72;100.00;8717.78;6276341;22;20398;-71
2021/09/01 03:06:44;;;;;;;0.73;0.70;;;;;;;15.74;100.00;9322.28;6276605;22;20467;-72
2021/09/01 03:09:12;;;;;;;0.70;0.60;;;;;;;15.73;100.00;9798.72;6275915;22;20470;-71
2021/09/01 03:11:40;;;;;;;0.80;0.70;;;;;;;15.76;100.00;10074.72;6275407;22;20932;-70
2021/09/01 03:14:07;;;;;;;0.70;0.67;;;;;;;15.77;100.00;10720.00;6224004;22;20387;-71
2021/09/01 03:16:35;;;;;;;0.70;0.70;;;;;;;15.72;100.00;11075.75;6224331;22;20753;-70
2021/09/01 03:19:02;;;;;;;0.70;0.70;;;;;;;15.74;100.00;11849.00;6275585;22;20394;-72
2021/09/01 03:21:29;;;;;;;0.70;0.60;;;;;;;15.79;100.00;12176.84;6247676;22;20416;-72
2021/09/01 03:23:55;;;;;;;0.70;0.60;;;;;;;15.77;100.00;12395.56;6276190;22;20403;-71
2021/09/01 03:26:26;;;;;;;1.30;1.20;;;;;;;15.78;100.00;12755.72;6275182;22;20391;-70
2021/09/01 03:28:53;;;;;;;0.70;0.60;;;;;;;15.85;100.00;13428.84;6275768;22;20429;-72
2021/09/01 03:31:25;;;;;;;0.70;0.70;;;;;;;15.81;100.00;13894.63;6276155;22;20461;-71
2021/09/01 03:33:53;;;;;;;0.70;0.70;;;;;;;15.83;100.00;14574.25;6276171;22;20398;-72
2021/09/01 03:36:20;;;;;;;0.70;0.60;;;;;;;15.82;100.00;15225.06;6276204;22;20393;-71
2021/09/01 03:38:47;;;;;;;1.17;1.00;;;;;;;15.78;100.00;15226.50;6249582;22;20423;-71
2021/09/01 03:41:14;;;;;;;0.70;0.60;;;;;;;15.74;100.00;15518.84;6250145;22;20465;-72
2021/09/01 03:43:42;;;;;;;0.70;0.60;;;;;;;15.74;100.00;15907.00;6278820;22;20382;-71
2021/09/01 03:46:10;;;;;;;0.70;0.70;;;;;;;15.74;100.00;16629.78;6278362;22;20424;-71
2021/09/01 03:48:37;;;;;;;0.70;0.70;;;;;;;15.69;100.00;16888.63;6251339;22;20386;-71
2021/09/01 03:51:07;;;;;;;0.70;0.70;;;;;;;15.67;100.00;17276.19;6278051;22;20473;-71
2021/09/01 03:53:34;;;;;;;0.70;0.70;;;;;;;15.70;100.00;17944.09;6278058;22;20747;-72
2021/09/01 03:56:04;;;;;;;0.80;0.70;;;;;;;15.70;100.00;18646.81;6251159;22;20366;-72
2021/09/01 03:58:34;;;;;;;0.77;0.70;;;;;;;15.64;100.00;18575.75;6250316;22;20496;-72
2021/09/01 04:01:02;;;;;;;0.80;0.80;;;;;;;15.65;100.00;18990.16;6250842;22;20430;-71
2021/09/01 04:03:29;;;;;;;0.70;0.60;;;;;;;15.65;100.00;19276.41;6278130;22;20833;-70
2021/09/01 04:05:56;;;;;;;0.70;0.60;;;;;;;15.67;100.00;19578.63;6277853;22;20836;-71
2021/09/01 04:08:23;;;;;;;0.70;0.60;;;;;;;15.64;100.00;19761.50;6278090;22;20405;-71
2021/09/01 04:10:50;;;;;;;0.80;0.80;;;;;;;15.62;100.00;20256.66;6278006;22;20419;-71
2021/09/01 04:13:17;;;;;;;0.70;0.70;;;;;;;15.59;100.00;20661.97;6276864;22;20418;-72
2021/09/01 04:15:44;;;;;;;1.23;1.13;;;;;;;15.57;100.00;20934.94;6277992;22;20409;-71
2021/09/01 04:18:13;;;;;;;0.70;0.60;;;;;;;15.58;100.00;21218.97;6277602;22;20856;-72
2021/09/01 04:20:40;;;;;;;0.70;0.60;;;;;;;15.56;100.00;21075.16;6251333;22;20383;-71
2021/09/01 04:23:07;;;;;;;0.70;0.70;;;;;;;15.57;100.00;21512.63;6278553;22;20410;-71
2021/09/01 04:25:34;;;;;;;0.70;0.70;;;;;;;15.54;100.00;21736.63;6249145;22;20380;-71
2021/09/01 04:28:02;;;;;;;0.70;0.70;;;;;;;15.57;100.00;22152.03;6276396;22;20389;-71
2021/09/01 04:30:29;;;;;;;0.70;0.60;;;;;;;15.55;100.00;22100.03;6277453;22;20417;-71
2021/09/01 04:32:56;;;;;;;0.80;0.70;;;;;;;15.51;100.00;22088.28;6277320;22;20421;-72
2021/09/01 04:35:24;;;;;;;1.83;0.93;;;;;;;15.52;100.00;22331.47;6277274;22;20387;-71
2021/09/01 04:37:51;;;;;;;0.70;0.60;;;;;;;15.49;100.00;22706.41;6277767;22;20415;-71
2021/09/01 04:40:19;;;;;;;0.93;0.80;;;;;;;15.51;100.00;22661.03;6278031;22;20866;-71
2021/09/01 04:42:46;;;;;;;0.70;0.70;;;;;;;15.50;100.00;23067.31;6277341;22;20478;-71
2021/09/01 04:45:13;;;;;;;0.70;0.60;;;;;;;15.47;100.00;22805.28;6250624;22;20384;-70
2021/09/01 04:47:40;;;;;;;0.70;0.60;;;;;;;15.51;100.00;23290.56;6250957;22;20391;-71
2021/09/01 04:50:09;;;;;;;1.47;1.10;;;;;;;15.48;100.00;23276.44;6250363;22;20426;-71
2021/09/01 04:52:38;;;;;;;0.70;0.60;;;;;;;15.48;100.00;23166.19;6276849;22;20410;-71
2021/09/01 04:55:06;;;;;;;0.70;0.67;;;;;;;15.48;100.00;23332.50;6278145;22;20394;-71
2021/09/01 04:57:33;;;;;;;0.70;0.70;;;;;;;15.50;100.00;23328.28;6250811;22;20442;-71
2021/09/01 05:00:00;;;;;;;0.70;0.60;;;;;;;15.49;100.00;23038.72;6277208;22;20383;-71
2021/09/01 05:02:27;;;;;;;0.70;0.70;;;;;;;15.49;100.00;23228.03;6277301;22;20388;-71
2021/09/01 05:04:54;;;;;;;0.80;0.70;;;;;;;15.52;100.00;23270.31;6249778;22;20407;-71
2021/09/01 05:07:20;;;;;;;1.10;1.00;;;;;;;15.49;100.00;23583.66;6250293;22;20425;-71
2021/09/01 05:09:49;;;;;;;0.70;0.70;;;;;;;15.53;100.00;23977.25;6276577;22;20427;-71
2021/09/01 05:12:16;;;;;;;0.90;0.80;;;;;;;15.54;100.00;23867.66;6276856;22;20477;-71
2021/09/01 05:14:44;;;;;;;0.80;0.77;;;;;;;15.56;100.00;24165.47;6277636;22;20724;-71
2021/09/01 05:17:10;;;;;;;0.70;0.60;;;;;;;15.58;100.00;24545.22;6278301;22;20392;-71
2021/09/01 05:19:38;;;;;;;0.70;0.60;;;;;;;15.58;100.00;24306.94;6278535;22;20385;-71
2021/09/01 05:22:29;;;;;;;0.70;0.60;;;;;;;15.58;100.00;24952.00;6277905;22;20821;-70
2021/09/01 05:25:02;;;;;;;1.27;1.13;;;;;;;15.59;100.00;24645.28;6251851;22;20371;-71
2021/09/01 05:27:32;;;;;;;0.70;0.60;;;;;;;15.61;100.00;25009.75;6249195;22;20404;-71
2021/09/01 05:30:00;;;;;;;0.70;0.70;;;;;;;15.61;100.00;25232.75;6249276;22;20461;-71
2021/09/01 05:32:29;;;;;;;0.70;0.70;;;;;;;15.60;100.00;25137.53;6250739;22;20375;-71
2021/09/01 05:34:58;;;;;;;0.80;0.70;;;;;;;15.64;100.00;25359.44;6250769;22;20419;-71
2021/09/01 05:37:27;;;;;;;0.70;0.60;;;;;;;15.67;100.00;25120.44;6250256;22;20859;-72
2021/09/01 05:39:57;;;;;;;0.70;0.67;;;;;;;15.68;100.00;25338.34;6277248;22;20444;-71
2021/09/01 05:42:28;;;;;;;0.70;0.67;;;;;;;15.72;100.00;25867.88;6276479;22;20409;-71
2021/09/01 05:44:57;;;;;;;0.70;0.70;;;;;;;15.78;100.00;26370.13;6276238;22;20808;-72
2021/09/01 05:47:25;;;;;;;0.93;0.83;;;;;;;15.75;100.00;26020.47;6276738;22;20418;-71
2021/09/01 05:49:53;;;;;;;0.70;0.70;;;;;;;15.81;100.00;26494.63;6249890;22;20461;-71
2021/09/01 05:52:21;;;;;;;0.70;0.60;;;;;;;15.79;100.00;26396.50;6277008;22;20370;-71
2021/09/01 05:54:52;;;;;;;1.17;1.07;;;;;;;15.85;100.00;26817.19;6277124;22;20372;-71
2021/09/01 05:57:20;;;;;;;0.70;0.70;;;;;;;15.88;100.00;27213.41;6248818;22;20439;-71
2021/09/01 06:00:00;;;;;;;0.80;0.80;;;;;;;15.88;100.00;27246.72;6275835;22;20434;-71
2021/09/01 06:02:41;;;;;;;0.70;0.70;;;;;;;15.86;100.00;26871.28;6276768;22;20373;-71
2021/09/01 06:05:10;;;;;;;0.70;0.70;;;;;;;15.89;100.00;27219.06;6276555;22;20371;-71
2021/09/01 06:07:44;;;;;;;0.80;0.70;;;;;;;15.91;100.00;26095.03;6276507;22;20403;-71
2021/09/01 06:10:14;;;;;;;0.80;0.80;;;;;;;15.93;100.00;25875.66;6276450;22;20924;-71
2021/09/01 06:12:45;;;;;;;0.80;0.73;;;;;;;16.01;100.00;26089.25;6276185;22;20393;-71
2021/09/01 06:15:14;;;;;;;0.70;0.70;;;;;;;16.05;100.00;26947.59;6276468;22;20365;-71
2021/09/01 06:17:41;;;;;;;0.70;0.60;;;;;;;16.06;100.00;26294.22;6276021;22;20462;-71
2021/09/01 06:20:10;;;;;;;3.90;1.00;;;;;;;16.07;100.00;25902.59;6274171;22;20509;-72
2021/09/01 06:22:37;;;;;;;0.70;0.60;;;;;;;16.08;100.00;25449.50;6276359;22;20428;-71
2021/09/01 06:25:05;;;;;;;0.73;0.70;;;;;;;16.05;100.00;23928.91;6277198;22;20376;-71
2021/09/01 06:27:33;;;;;;;0.80;0.70;;;;;;;16.09;100.00;22384.03;6278495;22;20907;-71
2021/09/01 06:30:00;;;;;;;0.70;0.60;;;;;;;16.14;100.00;20875.94;6277892;22;20420;-71
2021/09/01 06:32:28;;;;;;;1.23;1.13;;;;;;;16.07;100.00;17936.69;6278608;22;20703;-71
2021/09/01 06:34:55;;;;;;;1.00;0.93;;;;;;;16.17;100.00;16143.34;6276379;22;20861;-71
2021/09/01 06:37:22;;;;;;;1.17;1.07;;;;;;;16.17;100.00;13560.38;6276100;22;20379;-71
2021/09/01 06:39:51;;;;;;;0.70;0.70;;;;;;;16.21;100.00;10442.19;6248649;22;20402;-71
2021/09/01 06:42:19;;;;;;;0.70;0.70;;;;;;;16.27;100.00;7926.06;6248826;22;20389;-71
2021/09/01 06:44:46;;;;;;;0.70;0.60;;;;;;;16.24;100.00;4604.88;6276221;22;20375;-73
2021/09/01 06:47:13;;;;;;;0.70;0.70;;;;;;;16.28;100.00;2548.00;6249307;22;20386;-71
2021/09/01 06:49:42;;;;;;;0.70;0.70;;;;;;;16.29;100.00;-1919.06;6274965;22;20396;-71
2021/09/01 06:52:09;;;;;;;0.70;0.67;;;;;;;16.26;100.00;-6014.47;6273631;22;20434;-71
2021/09/01 06:54:36;;;;;;;0.70;0.60;;;;;;;16.32;100.00;-11276.53;6247327;22;20442;-71
2021/09/01 06:57:03;;;;;;;0.70;0.70;;;;;;;16.34;100.00;-17669.25;6273559;22;20401;-71
2021/09/01 06:59:30;;;;;;;0.80;0.70;;;;;;;16.34;100.00;-20982.09;6222181;22;20485;-71
2021/09/01 07:01:57;;;;;;;0.90;0.70;;;;;;;16.46;100.00;-21128.53;6275556;22;20433;-71
2021/09/01 07:04:24;;;;;;;0.70;0.60;;;;;;;16.41;100.00;-21127.44;6276012;22;20389;-71
2021/09/01 07:06:53;;;;;;;0.70;0.70;;;;;;;16.39;100.00;-21126.91;6249036;22;20471;-71
2021/09/01 07:09:19;;;;;;;0.70;0.60;;;;;;;16.51;100.00;-21129.91;6275520;22;20429;-71
2021/09/01 07:11:46;;;;;;;1.00;0.90;;;;;;;16.53;100.00;-21130.59;6276211;22;20430;-71
2021/09/01 07:14:13;;;;;;;0.70;0.70;;;;;;;16.64;100.00;-21133.50;6251145;22;20418;-71
2021/09/01 07:16:40;;;;;;;0.70;0.60;;;;;;;16.65;100.00;-21133.75;6278125;22;20398;-71
2021/09/01 07:19:07;;;;;;;0.70;0.60;;;;;;;16.66;100.00;-21134.03;6250845;22;20730;-72
2021/09/01 07:21:34;;;;;;;0.70;0.60;;;;;;;16.77;100.00;-21136.94;6278160;22;20383;-71
2021/09/01 07:24:03;;;;;;;0.80;0.80;;;;;;;16.66;100.00;-21134.03;6277869;22;20411;-72
2021/09/01 07:26:30;;;;;;;0.70;0.60;;;;;;;16.82;100.00;-21138.44;6277397;22;20917;-71
2021/09/01 07:28:57;;;;;;;0.80;0.73;;;;;;;16.80;100.00;-21137.75;6276823;22;20415;-71
2021/09/01 07:31:24;;;;;;;0.80;0.80;;;;;;;16.79;100.00;-21137.63;6276952;22;20415;-71
2021/09/01 07:33:51;;;;;;;0.80;0.70;;;;;;;16.85;100.00;-21139.25;6276505;22;20394;-71
2021/09/01 07:36:20;;;;;;;0.70;0.60;;;;;;;16.93;100.00;-21141.19;6275973;22;20387;-71
2021/09/01 07:38:48;;;;;;;0.70;0.70;;;;;;;17.03;100.00;-21144.06;6224240;22;20418;-71
2021/09/01 07:41:16;;;;;;;0.70;0.60;;;;;;;17.00;100.00;-21143.09;6278155;22;20364;-71
2021/09/01 07:43:43;;;;;;;0.70;0.60;;;;;;;16.99;100.00;-21142.97;6276520;22;20435;-72
2021/09/01 07:46:10;;;;;;;0.70;0.70;;;;;;;16.97;100.00;-21142.28;6246813;22;20422;-71
2021/09/01 07:48:38;;;;;;;0.73;0.73;;;;;;;16.96;100.00;-21142.13;6277561;22;20745;-71
2021/09/01 07:51:04;;;;;;;0.70;0.70;;;;;;;17.09;100.00;-21145.56;6278452;22;20385;-72
2021/09/01 07:53:31;;;;;;;0.70;0.70;;;;;;;17.23;100.00;-21149.41;6278695;22;20423;-71
2021/09/01 07:55:58;;;;;;;0.90;0.90;;;;;;;17.30;100.00;-21151.19;6250527;22;20377;-71
2021/09/01 07:58:27;;;;;;;0.80;0.70;;;;;;;17.25;100.00;-21149.97;6277044;22;20801;-72
2021/09/01 08:00:54;;;;;;;0.70;0.60;;;;;;;17.43;100.00;-21154.75;6278025;22;20674;-71
2021/09/01 08:03:21;;;;;;;1.27;1.00;;;;;;;17.52;100.00;-21157.09;6277412;22;20378;-71
2021/09/01 08:05:48;;;;;;;0.70;0.70;;;;;;;17.56;100.00;-21158.19;6250543;22;20405;-71
2021/09/01 08:08:15;;;;;;;0.70;0.70;;;;;;;17.60;100.00;-21159.28;6251005;22;20403;-71
2021/09/01 08:10:42;;;;;;;1.00;0.90;;;;;;;17.65;100.00;-21160.66;6250844;22;20426;-71
2021/09/01 08:13:09;;;;;;;1.07;0.80;;;;;;;17.60;100.00;-21159.28;6277643;22;20367;-70
2021/09/01 08:15:38;;;;;;;1.33;1.10;;;;;;;17.63;100.00;-21160.09;6275803;22;20354;-70
2021/09/01 08:18:05;;;;;;;0.70;0.70;;;;;;;17.72;100.00;-21162.56;6277456;22;20428;-71
2021/09/01 08:20:32;;;;;;;0.70;0.63;;;;;;;17.68;100.00;-21161.34;6250100;22;20339;-71
2021/09/01 08:22:59;;;;;;;0.70;0.60;;;;;;;17.71;100.00;-21162.28;6276168;22;20461;-70
2021/09/01 08:25:27;;;;;;;0.70;0.60;;;;;;;17.77;100.00;-21163.94;6250901;22;20407;-70
2021/09/01 08:27:55;;;;;;;0.70;0.60;;;;;;;17.71;100.00;-21162.28;6248142;22;20408;-71
2021/09/01 08:30:23;;;;;;;0.80;0.60;;;;;;;17.83;100.00;-21165.59;6248757;22;20445;-70
2021/09/01 08:32:51;;;;;;;0.70;0.60;;;;;;;17.93;100.00;-21168.06;6225581;22;20422;-70
2021/09/01 08:35:18;;;;;;;0.70;0.60;;;;;;;17.82;100.00;-21165.19;6249908;22;20753;-70
2021/09/01 08:37:48;;;;;;;0.70;0.60;;;;;;;17.96;100.00;-21168.88;6248166;22;20414;-71
2021/09/01 08:40:15;;;;;;;1.77;1.67;;;;;;;17.83;100.00;-21165.59;6276444;22;20368;-70
2021/09/01 08:42:43;;;;;;;0.70;0.63;;;;;;;17.77;100.00;-21163.94;6276279;22;20371;-71
2021/09/01 08:45:11;;;;;;;0.70;0.63;;;;;;;17.72;100.00;-21162.56;6277514;22;20368;-72
2021/09/01 08:47:39;;;;;;;0.80;0.77;;;;;;;17.86;100.00;-21166.41;6277630;22;20383;-70
2021/09/01 08:50:09;;;;;;;0.70;0.60;;;;;;;17.99;100.00;-21169.69;6250330;22;20751;-70
2021/09/01 08:52:40;;;;;;;0.70;0.60;;;;;;;17.97;100.00;-21169.28;6250547;22;20468;-70
2021/09/01 08:55:11;;;;;;;0.80;0.80;;;;;;;18.03;100.00;-21170.94;6277153;22;20418;-71
2021/09/01 08:57:38;;;;;;;0.70;0.70;;;;;;;18.02;100.00;-21170.53;6276045;22;20400;-71
2021/09/01 09:00:07;;;;;;;0.70;0.60;;;;;;;17.96;100.00;-21168.88;6276705;22;20350;-71
2021/09/01 09:02:35;;;;;;;0.70;0.70;;;;;;;18.02;100.00;-21170.66;6250193;22;20383;-71
2021/09/01 09:05:04;;;;;;;1.77;1.67;;;;;;;17.92;100.00;-21167.91;6277492;22;20383;-70
2021/09/01 09:07:42;;;;;;;0.90;0.80;;;;;;;18.02;100.00;-21170.66;6276910;22;20413;-72
2021/09/01 09:10:24;;;;;;;0.70;0.60;;;;;;;17.95;100.00;-21168.75;6277045;22;20785;-71
2021/09/01 09:12:56;;;;;;;1.30;1.20;;;;;;;18.18;100.00;-21174.91;6276459;22;20385;-71
2021/09/01 09:15:23;;;;;;;1.57;1.47;;;;;;;18.20;100.00;-21175.47;6249364;22;20346;-71
2021/09/01 09:17:59;;;;;;;0.70;0.60;;;;;;;18.25;100.00;-21176.81;6276913;22;20352;-71
2021/09/01 09:20:28;;;;;;;0.70;0.60;;;;;;;18.27;100.00;-21177.38;6276449;22;20871;-70
2021/09/01 09:22:58;;;;;;;0.80;0.70;;;;;;;18.30;100.00;-21178.06;6250075;22;20404;-71
2021/09/01 09:25:31;;;;;;;0.80;0.70;;;;;;;18.38;100.00;-21180.13;6277056;22;20396;-71
2021/09/01 09:28:01;;;;;;;0.80;0.80;;;;;;;18.55;100.00;-21184.75;6249369;22;20352;-71
2021/09/01 09:30:36;;;;;;;1.03;0.97;;;;;;;18.58;100.00;-21185.59;6250467;22;20402;-71
2021/09/01 09:33:06;;;;;;;0.70;0.60;;;;;;;18.53;100.00;-21184.22;6276158;22;20429;-70
2021/09/01 09:35:55;;;;;;;1.53;0.87;;;;;;;18.56;100.00;-21185.03;6276206;22;20372;-71
2021/09/01 09:38:37;;;;;;;0.70;0.60;;;;;;;18.56;100.00;-21185.03;6275781;22;20382;-71
2021/09/01 09:41:06;;;;;;;0.70;0.60;;;;;;;18.64;100.00;-21187.22;6249721;22;20398;-70
2021/09/01 09:43:34;;;;;;;0.70;0.70;;;;;;;18.54;100.00;-21184.63;6250146;22;20370;-70
2021/09/01 09:46:06;;;;;;;0.70;0.60;;;;;;;18.82;100.00;-21192.16;6276344;22;20371;-71
2021/09/01 09:48:36;;;;;;;0.90;0.90;;;;;;;18.81;100.00;-21191.88;6276812;22;20370;-71
2021/09/01 09:51:05;;;;;;;0.77;0.77;;;;;;;18.58;100.00;-21185.72;6249131;22;20431;-71
2021/09/01 09:53:36;;;;;;;0.70;0.60;;;;;;;18.72;100.00;-21189.44;6249977;22;20413;-71
2021/09/01 09:56:16;;;;;;;0.83;0.70;;;;;;;18.61;100.00;-21186.41;6276637;22;20372;-71
2021/09/01 09:58:45;;;;;;;0.93;0.83;;;;;;;18.62;100.00;-21186.69;6248301;22;20400;-71
2021/09/01 10:01:14;;;;;;;1.53;1.37;;;;;;;18.46;100.00;-21182.31;6274268;22;20379;-71
2021/09/01 10:03:41;;;;;;;0.70;0.60;;;;;;;18.37;100.00;-21179.97;6274625;22;20845;-72
2021/09/01 10:06:14;;;;;;;0.90;0.80;;;;;;;18.39;100.00;-21180.38;6247405;22;20364;-71
2021/09/01 10:08:43;;;;;;;0.73;0.70;;;;;;;18.42;100.00;-21181.34;6274029;22;20728;-71
2021/09/01 10:11:12;;;;;;;0.70;0.60;;;;;;;18.65;100.00;-21187.38;6272636;22;20421;-71
2021/09/01 10:13:46;;;;;;;0.70;0.60;;;;;;;18.47;100.00;-21182.56;6273285;22;20858;-71
2021/09/01 10:16:24;;;;;;;0.80;0.73;;;;;;;18.64;100.00;-21187.09;6223853;22;20450;-71
2021/09/01 10:19:00;;;;;;;0.70;0.60;;;;;;;18.75;100.00;-21190.25;6249314;22;20403;-71
2021/09/01 10:21:31;;;;;;;0.70;0.70;;;;;;;18.87;100.00;-21193.25;6250106;22;20442;-71
2021/09/01 10:24:17;;;;;;;0.70;0.70;;;;;;;18.99;100.00;-21196.53;6276160;22;20494;-70
2021/09/01 10:27:06;;;;;;;0.70;0.60;;;;;;;19.01;100.00;-21197.09;6276658;22;20358;-71
2021/09/01 10:29:39;;;;;;;1.00;0.80;;;;;;;19.41;100.00;-21207.75;6275911;22;20362;-71
2021/09/01 10:32:21;;;;;;;0.73;0.70;;;;;;;19.30;100.00;-21205.03;6276336;22;20469;-70
2021/09/01 10:34:49;;;;;;;0.70;0.60;;;;;;;19.48;100.00;-21209.66;6276321;22;20371;-71
2021/09/01 10:37:37;;;;;;;0.70;0.60;;;;;;;19.30;100.00;-21205.03;6276411;22;20385;-71
2021/09/01 10:40:07;;;;;;;0.70;0.60;;;;;;;19.16;100.00;-21201.19;6276384;22;20374;-71
2021/09/01 10:42:40;;;;;;;0.70;0.60;;;;;;;19.26;100.00;-21203.94;6248519;22;20372;-71
2021/09/01 10:45:09;;;;;;;2.03;1.93;;;;;;;19.32;100.00;-21205.44;6249976;22;20406;-71
2021/09/01 10:48:13;;;;;;;3.37;0.80;;;;;;;19.23;100.00;-21203.09;6275638;22;20403;-71
2021/09/01 10:50:43;;;;;;;0.83;0.83;;;;;;;19.31;100.00;-21205.16;6276022;22;20375;-70
2021/09/01 10:53:27;;;;;;;0.70;0.60;;;;;;;19.50;100.00;-21210.22;6276226;22;20431;-71
2021/09/01 10:56:04;;;;;;;0.70;0.60;;;;;;;19.15;100.00;-21200.91;6249632;22;20407;-70
2021/09/01 10:58:39;;;;;;;0.80;0.70;;;;;;;18.91;100.00;-21194.34;6247760;22;20402;-71
2021/09/01 11:01:10;;;;;;;0.70;0.60;;;;;;;18.89;100.00;-21193.94;6276551;22;20392;-71
2021/09/01 11:03:40;;;;;;;0.70;0.70;;;;;;;19.00;100.00;-21196.81;6249335;22;20901;-71
2021/09/01 11:06:12;;;;;;;1.47;1.17;;;;;;;18.96;100.00;-21195.72;6276334;22;20371;-71
2021/09/01 11:09:07;;;;;;;1.67;1.57;;;;;;;18.93;100.00;-21195.03;6276335;22;20421;-71
2021/09/01 11:11:42;;;;;;;0.80;0.70;;;;;;;18.89;100.00;-21193.81;6276600;22;20463;-71
2021/09/01 11:14:11;;;;;;;1.43;1.33;;;;;;;19.01;100.00;-21197.09;6275570;22;20856;-71
2021/09/01 11:16:38;;;;;;;0.70;0.70;;;;;;;19.20;100.00;-21202.28;6248887;22;20686;-70
2021/09/01 11:19:07;;;;;;;1.00;0.80;;;;;;;19.35;100.00;-21206.13;6276174;22;20362;-70
2021/09/01 11:21:41;;;;;;;0.70;0.63;;;;;;;19.36;100.00;-21206.38;6224873;22;20377;-71
2021/09/01 11:24:10;;;;;;;1.40;1.30;;;;;;;19.13;100.00;-21200.22;6275660;22;20427;-70
2021/09/01 11:26:37;;;;;;;1.43;1.33;;;;;;;19.48;100.00;-21209.66;6276336;22;20338;-70
2021/09/01 11:29:07;;;;;;;0.70;0.60;;;;;;;19.39;100.00;-21207.22;6275390;22;20408;-70
2021/09/01 11:31:43;;;;;;;0.80;0.70;;;;;;;19.76;100.00;-21217.31;6276066;22;20574;-70